createdAt,value
2023-03-05T00:01:45.975Z,2.06
2023-03-05T00:05:59.747Z,2.08
2023-03-05T00:10:10.138Z,2.14
2023-03-05T00:14:18.432Z,2.19
2023-03-05T00:18:27.126Z,2.22
2023-03-05T00:22:37.034Z,2.25
2023-03-05T00:26:45.630Z,2.24
2023-03-05T00:30:54.171Z,2.22
2023-03-05T00:35:01.996Z,2.20
2023-03-05T00:39:10.268Z,2.24
2023-03-05T00:43:18.283Z,2.29
2023-03-05T00:47:25.925Z,2.32
2023-03-05T00:51:34.082Z,2.34
2023-03-05T00:55:42.531Z,2.36
2023-03-05T00:59:51.886Z,2.34
2023-03-05T01:04:01.364Z,2.30
2023-03-05T01:08:09.893Z,2.24
2023-03-05T01:12:18.603Z,2.22
2023-03-05T01:16:26.888Z,2.18
2023-03-05T01:20:34.955Z,2.13
2023-03-05T01:24:42.801Z,2.10
2023-03-05T01:28:50.720Z,2.08
2023-03-05T01:32:58.163Z,2.05
2023-03-05T01:37:06.216Z,2.02
2023-03-05T01:41:14.615Z,2.05
2023-03-05T01:45:23.133Z,2.07
2023-03-05T01:49:33.656Z,2.08
2023-03-05T01:53:41.528Z,2.05
2023-03-05T01:57:52.173Z,1.99
2023-03-05T02:02:01.662Z,1.94
2023-03-05T02:06:10.231Z,1.89
2023-03-05T02:10:23.443Z,1.83
2023-03-05T02:14:31.174Z,1.77
2023-03-05T02:18:38.993Z,1.74
2023-03-05T02:22:46.775Z,1.71
2023-03-05T02:26:54.588Z,1.67
2023-03-05T02:31:03.202Z,1.63
2023-03-05T02:35:12.001Z,1.57
2023-03-05T02:39:20.423Z,1.50
2023-03-05T02:43:28.411Z,1.44
2023-03-05T02:47:36.179Z,1.47
2023-03-05T02:51:44.510Z,1.53
2023-03-05T02:55:52.552Z,1.58
2023-03-05T03:00:00.385Z,1.61
2023-03-05T03:04:08.584Z,1.64
2023-03-05T03:08:16.630Z,1.63
2023-03-05T03:12:25.096Z,1.59
2023-03-05T03:16:34.959Z,1.49
2023-03-05T03:20:42.980Z,1.45
2023-03-05T03:24:52.039Z,1.43
2023-03-05T03:29:00.068Z,1.42
2023-03-05T03:33:07.990Z,1.40
2023-03-05T03:37:15.827Z,1.38
2023-03-05T03:41:23.862Z,1.36
2023-03-05T03:45:31.696Z,1.40
2023-03-05T03:49:40.060Z,1.47
2023-03-05T03:53:47.641Z,1.51
2023-03-05T03:57:56.701Z,1.53
2023-03-05T04:02:04.911Z,1.51
2023-03-05T04:06:12.910Z,1.48
2023-03-05T04:10:20.894Z,1.41
2023-03-05T04:14:29.152Z,1.36
2023-03-05T04:18:36.963Z,1.31
2023-03-05T04:22:44.555Z,1.28
2023-03-05T04:26:52.474Z,1.32
2023-03-05T04:31:00.100Z,1.37
2023-03-05T04:35:08.862Z,1.40
2023-03-05T04:39:16.565Z,1.43
2023-03-05T04:43:24.316Z,1.41
2023-03-05T04:47:32.337Z,1.38
2023-03-05T04:51:40.354Z,1.36
2023-03-05T04:55:48.734Z,1.32
2023-03-05T04:59:56.590Z,1.34
2023-03-05T05:04:04.532Z,1.39
2023-03-05T05:08:14.139Z,1.41
2023-03-05T05:12:22.716Z,1.40
2023-03-05T05:16:30.977Z,1.37
2023-03-05T05:20:39.184Z,1.32
2023-03-05T05:24:47.157Z,1.28
2023-03-05T05:28:54.692Z,1.28
2023-03-05T05:33:02.896Z,1.32
2023-03-05T05:37:11.187Z,1.37
2023-03-05T05:41:20.743Z,1.39
2023-03-05T05:45:29.158Z,1.37
2023-03-05T05:49:37.166Z,1.34
2023-03-05T05:53:46.022Z,1.30
2023-03-05T05:57:54.200Z,1.28
2023-03-05T06:02:02.171Z,1.27
2023-03-05T06:06:14.230Z,1.29
2023-03-05T06:10:22.563Z,1.31
2023-03-05T06:14:31.320Z,1.33
2023-03-05T06:18:41.205Z,1.32
2023-03-05T06:22:49.135Z,1.26
2023-03-05T06:26:57.653Z,1.21
2023-03-05T06:31:07.256Z,1.20
2023-03-05T06:35:15.035Z,1.23
2023-03-05T06:39:23.814Z,1.31
2023-03-05T06:43:33.526Z,1.37
2023-03-05T06:47:41.143Z,1.41
2023-03-05T06:51:51.306Z,1.44
2023-03-05T06:55:59.371Z,1.45
2023-03-05T07:00:10.417Z,1.47
2023-03-05T07:04:19.379Z,1.47
2023-03-05T07:08:26.977Z,1.51
2023-03-05T07:12:38.915Z,1.58
2023-03-05T07:16:47.756Z,1.61
2023-03-05T07:20:56.534Z,1.61
2023-03-05T07:25:04.722Z,1.61
2023-03-05T07:29:12.618Z,1.61
2023-03-05T07:33:20.729Z,1.62
2023-03-05T07:37:28.663Z,1.68
2023-03-05T07:41:36.376Z,1.75
2023-03-05T07:45:45.674Z,1.81
2023-03-05T07:49:53.838Z,1.85
2023-03-05T07:54:02.361Z,1.86
2023-03-05T07:58:10.531Z,1.86
2023-03-05T08:02:20.255Z,1.84
2023-03-05T08:06:29.108Z,1.87
2023-03-05T08:10:38.574Z,1.92
2023-03-05T08:14:48.197Z,1.94
2023-03-05T08:18:58.143Z,1.96
2023-03-05T08:23:06.097Z,1.97
2023-03-05T08:27:16.202Z,1.97
2023-03-05T08:31:25.438Z,1.90
2023-03-05T08:35:33.873Z,1.85
2023-03-05T08:39:42.984Z,1.87
2023-03-05T08:43:51.362Z,1.91
2023-03-05T08:47:59.826Z,1.90
2023-03-05T08:52:08.017Z,1.86
2023-03-05T08:56:19.569Z,1.73
2023-03-05T09:00:27.838Z,1.56
2023-03-05T09:04:35.324Z,1.42
2023-03-05T09:08:43.896Z,1.41
2023-03-05T09:12:51.778Z,1.48
2023-03-05T09:17:00.665Z,1.58
2023-03-05T09:21:11.054Z,1.65
2023-03-05T09:25:20.337Z,1.78
2023-03-05T09:29:31.487Z,1.89
2023-03-05T09:33:40.277Z,2.00
2023-03-05T09:37:48.542Z,2.13
2023-03-05T09:42:09.827Z,2.32
2023-03-05T09:46:28.534Z,2.52
2023-03-05T09:50:45.827Z,2.69
2023-03-05T09:54:57.835Z,2.80
2023-03-05T09:59:09.545Z,2.87
2023-03-05T10:03:22.792Z,2.91
2023-03-05T10:07:34.299Z,2.92
2023-03-05T10:11:47.746Z,2.98
2023-03-05T10:16:03.133Z,3.00
2023-03-05T10:20:35.175Z,2.97
2023-03-05T10:24:51.728Z,2.88
2023-03-05T10:29:12.742Z,2.85
2023-03-05T10:33:27.411Z,2.83
2023-03-05T10:37:51.245Z,2.82
2023-03-05T10:42:06.078Z,2.85
2023-03-05T10:46:18.867Z,2.93
2023-03-05T10:50:29.795Z,2.97
2023-03-05T10:54:41.927Z,3.04
2023-03-05T10:58:49.702Z,3.06
2023-03-05T11:03:01.764Z,3.03
2023-03-05T11:07:34.316Z,3.01
2023-03-05T11:11:42.940Z,3.00
2023-03-05T11:16:03.191Z,3.00
2023-03-05T11:20:36.031Z,3.02
2023-03-05T11:24:43.903Z,3.07
2023-03-05T11:29:01.330Z,3.17
2023-03-05T11:33:15.335Z,3.33
2023-03-05T11:37:32.568Z,3.42
2023-03-05T11:41:43.248Z,3.45
2023-03-05T11:45:54.181Z,3.49
2023-03-05T11:50:08.326Z,3.56
2023-03-05T11:54:20.595Z,3.68
2023-03-05T11:58:32.991Z,3.76
2023-03-05T12:02:41.346Z,3.81
2023-03-05T12:06:50.938Z,3.84
2023-03-05T12:10:59.140Z,3.86
2023-03-05T12:15:28.951Z,3.86
2023-03-05T12:19:47.110Z,3.85
2023-03-05T12:24:01.571Z,3.86
2023-03-05T12:28:17.467Z,3.86
2023-03-05T12:33:02.824Z,3.89
2023-03-05T12:37:14.723Z,3.91
2023-03-05T12:41:45.533Z,3.93
2023-03-05T12:45:54.592Z,3.98
2023-03-05T12:50:02.712Z,3.98
2023-03-05T12:54:29.776Z,4.03
2023-03-05T12:58:43.131Z,4.06
2023-03-05T13:02:56.300Z,4.05
2023-03-05T13:07:14.267Z,4.04
2023-03-05T13:11:25.149Z,4.06
2023-03-05T13:15:32.918Z,4.02
2023-03-05T13:19:44.784Z,3.98
2023-03-05T13:23:58.498Z,3.98
2023-03-05T13:28:15.284Z,4.00
2023-03-05T13:32:28.268Z,3.59
2023-03-05T13:36:36.395Z,3.17
2023-03-05T13:40:44.838Z,2.74
2023-03-05T13:44:59.797Z,2.42
2023-03-05T13:49:25.001Z,2.18
2023-03-05T13:53:35.155Z,2.04
2023-03-05T13:57:45.342Z,2.02
2023-03-05T14:01:54.509Z,2.00
2023-03-05T14:06:13.320Z,2.05
2023-03-05T14:10:38.485Z,2.10
2023-03-05T14:14:47.413Z,2.16
2023-03-05T14:18:59.761Z,2.19
2023-03-05T14:23:29.242Z,2.21
2023-03-05T14:27:39.692Z,2.17
2023-03-05T14:31:53.849Z,2.18
2023-03-05T14:36:03.689Z,2.22
2023-03-05T14:40:23.540Z,2.28
2023-03-05T14:44:32.484Z,2.36
2023-03-05T14:48:41.388Z,2.41
2023-03-05T14:52:50.786Z,2.42
2023-03-05T14:56:58.662Z,2.41
2023-03-05T15:01:07.675Z,2.39
2023-03-05T15:05:16.019Z,2.39
2023-03-05T15:09:24.622Z,2.37
2023-03-05T15:13:33.467Z,2.36
2023-03-05T15:17:44.347Z,2.40
2023-03-05T15:21:52.565Z,2.46
2023-03-05T15:26:06.096Z,2.50
2023-03-05T15:30:22.579Z,2.51
2023-03-05T15:34:31.349Z,2.48
2023-03-05T15:38:42.094Z,2.41
2023-03-05T15:42:50.886Z,2.34
2023-03-05T15:47:00.057Z,2.25
2023-03-05T15:51:10.839Z,2.11
2023-03-05T15:55:19.685Z,1.91
2023-03-05T15:59:28.757Z,1.74
2023-03-05T16:03:37.895Z,1.67
2023-03-05T16:07:48.651Z,1.68
2023-03-05T16:11:57.720Z,1.73
2023-03-05T16:16:07.760Z,1.73
2023-03-05T16:20:17.635Z,1.70
2023-03-05T16:24:27.706Z,1.68
2023-03-05T16:28:36.542Z,1.68
2023-03-05T16:32:44.973Z,1.74
2023-03-05T16:36:53.518Z,1.80
2023-03-05T16:41:08.177Z,1.82
2023-03-05T16:45:18.840Z,1.77
2023-03-05T16:49:27.149Z,1.69
2023-03-05T16:53:35.962Z,1.60
2023-03-05T16:57:44.078Z,1.53
2023-03-05T17:01:52.635Z,1.50
2023-03-05T17:06:01.151Z,1.49
2023-03-05T17:10:11.119Z,1.50
2023-03-05T17:14:19.002Z,1.46
2023-03-05T17:18:26.897Z,1.38
2023-03-05T17:22:34.464Z,1.33
2023-03-05T17:26:43.377Z,1.23
2023-03-05T17:30:51.578Z,1.14
2023-03-05T17:34:59.533Z,1.04
2023-03-05T17:39:07.515Z,0.97
2023-03-05T17:43:15.257Z,0.96
2023-03-05T17:47:24.150Z,0.89
2023-03-05T17:51:31.877Z,0.86
2023-03-05T17:55:40.060Z,0.86
2023-03-05T17:59:48.372Z,0.88
2023-03-05T18:03:56.538Z,0.89
2023-03-05T18:08:04.918Z,0.79
2023-03-05T18:12:13.227Z,0.64
2023-03-05T18:16:21.599Z,0.52
2023-03-05T18:20:33.725Z,0.56
2023-03-05T18:24:42.091Z,0.65
2023-03-05T18:28:49.994Z,0.68
2023-03-05T18:32:57.805Z,0.75
2023-03-05T18:37:06.351Z,0.82
2023-03-05T18:41:22.064Z,0.87
2023-03-05T18:45:31.503Z,0.96
2023-03-05T18:49:39.775Z,1.03
2023-03-05T18:53:48.476Z,1.12
2023-03-05T18:57:59.131Z,1.18
2023-03-05T19:02:08.326Z,1.19
2023-03-05T19:06:16.176Z,1.15
2023-03-05T19:10:24.558Z,1.11
2023-03-05T19:14:32.945Z,1.10
2023-03-05T19:19:22.743Z,1.13
2023-03-05T19:23:30.318Z,1.15
2023-03-05T19:27:38.390Z,1.14
2023-03-05T19:31:45.962Z,1.10
2023-03-05T19:35:53.979Z,1.03
2023-03-05T19:40:05.272Z,1.02
2023-03-05T19:44:18.915Z,1.02
2023-03-05T19:48:27.215Z,1.03
2023-03-05T19:52:34.942Z,1.01
2023-03-05T19:56:43.837Z,0.98
2023-03-05T20:00:52.347Z,0.91
2023-03-05T20:05:00.659Z,0.89
2023-03-05T20:09:08.657Z,0.88
2023-03-05T20:13:16.589Z,0.88
2023-03-05T20:17:26.732Z,0.85
2023-03-05T20:21:37.280Z,0.80
2023-03-05T20:25:45.677Z,0.76
2023-03-05T20:29:53.289Z,0.76
2023-03-05T20:34:01.641Z,0.77
2023-03-05T20:38:26.376Z,0.81
2023-03-05T20:42:34.617Z,0.80
2023-03-05T20:47:25.615Z,0.80
2023-03-05T20:51:35.161Z,0.76
2023-03-05T20:55:43.077Z,0.70
2023-03-05T20:59:50.692Z,0.65
2023-03-05T21:03:58.559Z,0.66
2023-03-05T21:08:07.339Z,0.67
2023-03-05T21:12:15.934Z,0.66
2023-03-05T21:16:26.623Z,0.65
2023-03-05T21:20:37.120Z,0.63
2023-03-05T21:25:16.455Z,0.59
2023-03-05T21:29:26.696Z,0.63
2023-03-05T21:33:35.250Z,0.68
2023-03-05T21:37:43.626Z,0.71
2023-03-05T21:41:51.926Z,0.71
2023-03-05T21:45:59.711Z,0.68
2023-03-05T21:50:09.463Z,0.65
2023-03-05T21:54:17.471Z,0.65
2023-03-05T21:58:25.605Z,0.68
2023-03-05T22:02:33.734Z,0.73
2023-03-05T22:06:41.775Z,0.75
2023-03-05T22:10:49.488Z,0.75
2023-03-05T22:14:57.551Z,0.68
2023-03-05T22:19:07.306Z,0.63
2023-03-05T22:23:15.640Z,0.59
2023-03-05T22:27:23.318Z,0.60
2023-03-05T22:31:31.905Z,0.64
2023-03-05T22:35:41.699Z,0.67
2023-03-05T22:39:56.530Z,0.70
2023-03-05T22:44:04.803Z,0.72
2023-03-05T22:48:13.141Z,0.70
2023-03-05T22:52:20.962Z,0.67
2023-03-05T22:56:30.073Z,0.63
2023-03-05T23:00:38.504Z,0.62
2023-03-05T23:04:50.657Z,0.67
2023-03-05T23:08:58.206Z,0.71
2023-03-05T23:13:05.367Z,0.72
2023-03-05T23:17:13.076Z,0.66
2023-03-05T23:21:21.495Z,0.55
2023-03-05T23:25:30.910Z,0.46
2023-03-05T23:30:16.920Z,0.36
2023-03-05T23:34:24.583Z,0.29
2023-03-05T23:38:33.498Z,0.26
2023-03-05T23:42:41.636Z,0.23
2023-03-05T23:46:49.456Z,0.20
2023-03-05T23:50:57.484Z,0.14
2023-03-05T23:55:05.897Z,0.06
2023-03-05T23:59:13.990Z,-0.02
